Time;durP1;ratioP1;P1;durP2;ratioP2;P2;SDS_P1;SDS_P2;PMS_P1;PMS_P2;Temp;Humidity;BMP_temperature;BMP_pressure;BME280_temperature;BME280_humidity;BME280_pressure;Samples;Min_cycle;Max_cycle;Signal;HPM_P1;HPM_P2
2021/12/16 00:03:56;;;;;;;23.50;10.93;;;;;6.40;97824.00;;;;8360727;28;20232;-75
2021/12/16 00:08:04;;;;;;;17.87;9.63;;;;;6.40;97814.00;;;;8361311;28;20220;-74
2021/12/16 00:30:24;;;;;;;28.17;11.87;;;;;6.30;97812.00;;;;8363880;28;20307;-74
2021/12/16 00:34:42;;;;;;;22.80;11.43;;;;;6.30;97831.00;;;;8366763;28;20224;-75
2021/12/16 00:38:45;;;;;;;21.10;10.63;;;;;6.40;97828.00;;;;8366714;28;20224;-74
2021/12/16 00:42:52;;;;;;;23.57;11.03;;;;;6.40;97826.00;;;;8366861;28;20230;-74
2021/12/16 00:47:02;;;;;;;22.30;10.90;;;;;6.40;97828.00;;;;8366759;28;20224;-75
2021/12/16 00:55:35;;;;;;;24.03;10.90;;;;;6.20;97822.00;;;;8366262;28;20256;-74
2021/12/16 01:00:05;;;;;;;22.90;10.63;;;;;6.20;97831.00;;;;8366080;28;20647;-76
2021/12/16 01:35:18;;;;;;;20.83;10.03;;;;;6.10;97835.00;;;;8365063;28;20624;-74
2021/12/16 01:39:57;;;;;;;21.27;9.47;;;;;6.00;97828.00;;;;8364317;28;20222;-74
2021/12/16 01:57:16;;;;;;;23.23;9.50;;;;;6.00;97827.00;;;;8364433;28;20602;-73
2021/12/16 02:01:28;;;;;;;20.93;9.27;;;;;6.00;97828.00;;;;8363738;28;20228;-73
2021/12/16 02:05:55;;;;;;;19.37;9.70;;;;;6.00;97819.00;;;;8363975;28;20610;-73
2021/12/16 02:10:03;;;;;;;20.10;8.73;;;;;6.00;97824.00;;;;8363641;28;20217;-72
2021/12/16 02:28:14;;;;;;;19.80;8.77;;;;;5.90;97818.00;;;;8363323;28;20220;-72
2021/12/16 02:32:34;;;;;;;22.73;9.47;;;;;6.00;97816.00;;;;8363446;28;20299;-72
2021/12/16 02:36:42;;;;;;;20.33;9.37;;;;;5.90;97816.00;;;;8362958;28;20252;-72
2021/12/16 02:40:48;;;;;;;20.23;9.97;;;;;5.90;97821.00;;;;8362865;28;20220;-72
2021/12/16 02:49:14;;;;;;;22.73;10.10;;;;;5.90;97817.00;;;;8362625;28;20231;-72
2021/12/16 02:53:53;;;;;;;22.40;10.07;;;;;5.80;97811.00;;;;8362677;28;20232;-72
2021/12/16 02:58:00;;;;;;;22.87;10.13;;;;;5.80;97813.00;;;;8362595;28;20246;-72
2021/12/16 03:02:08;;;;;;;23.23;10.40;;;;;5.80;97813.00;;;;8405189;22;20222;-74
2021/12/16 03:06:12;;;;;;;22.63;9.83;;;;;5.80;97815.00;;;;8395535;28;20257;-72
2021/12/16 03:14:51;;;;;;;20.63;9.50;;;;;5.90;97820.00;;;;8361197;28;20319;-73
2021/12/16 03:19:09;;;;;;;26.97;10.47;;;;;5.90;97824.00;;;;8414690;28;21082;-72
2021/12/16 03:23:40;;;;;;;23.17;9.47;;;;;5.90;97823.00;;;;8415362;28;20277;-74
2021/12/16 03:28:16;;;;;;;25.77;9.57;;;;;5.90;97818.00;;;;8414447;28;20254;-73
2021/12/16 03:32:35;;;;;;;24.57;9.63;;;;;5.90;97822.00;;;;8404272;28;20253;-73
2021/12/16 03:37:12;;;;;;;29.77;11.00;;;;;5.90;97808.00;;;;8414481;28;20325;-73
2021/12/16 03:41:15;;;;;;;28.43;10.47;;;;;5.90;97820.00;;;;8414646;28;20257;-74
2021/12/16 03:49:49;;;;;;;28.90;11.17;;;;;5.90;97826.00;;;;8412613;28;20337;-79
2021/12/16 03:53:56;;;;;;;30.83;10.97;;;;;5.90;97822.00;;;;8413788;28;21047;-76
2021/12/16 03:57:59;;;;;;;30.10;10.27;;;;;5.90;97831.00;;;;8414448;28;20246;-73
2021/12/16 04:02:06;;;;;;;24.40;10.23;;;;;5.90;97836.00;;;;8404386;28;20261;-75
2021/12/16 04:06:12;;;;;;;27.70;10.50;;;;;5.90;97835.00;;;;8382294;28;20676;-74
2021/12/16 04:10:19;;;;;;;22.77;9.47;;;;;5.90;97842.00;;;;8384363;28;20343;-76
2021/12/16 04:14:22;;;;;;;29.87;10.17;;;;;5.90;97843.00;;;;8382435;28;20331;-75
2021/12/16 04:18:26;;;;;;;25.63;10.40;;;;;5.80;97856.00;;;;8386912;28;20243;-77
2021/12/16 04:22:42;;;;;;;26.70;10.63;;;;;5.80;97850.00;;;;8386711;28;20315;-75
2021/12/16 04:26:47;;;;;;;28.57;9.83;;;;;5.80;97851.00;;;;8383113;28;20652;-73
2021/12/16 04:30:50;;;;;;;27.60;9.37;;;;;5.80;97849.00;;;;8385402;28;20859;-75
2021/12/16 04:34:54;;;;;;;27.93;10.10;;;;;5.80;97847.00;;;;8386107;28;20224;-73
2021/12/16 04:38:59;;;;;;;23.73;9.67;;;;;5.90;97845.00;;;;8386023;28;20319;-74
2021/12/16 04:43:08;;;;;;;25.73;10.40;;;;;5.90;97860.00;;;;8384884;28;20223;-73
2021/12/16 04:47:13;;;;;;;29.20;10.20;;;;;5.90;97862.00;;;;8384748;28;20255;-73
2021/12/16 04:51:17;;;;;;;28.27;9.87;;;;;6.00;97865.00;;;;8386043;28;20318;-72
2021/12/16 04:55:23;;;;;;;28.47;9.53;;;;;6.00;97857.00;;;;8385368;28;20310;-73
2021/12/16 04:59:27;;;;;;;32.23;11.37;;;;;6.00;97864.00;;;;8369010;28;20248;-74
2021/12/16 05:03:30;;;;;;;34.87;10.03;;;;;5.90;97856.00;;;;8387735;28;20238;-73
2021/12/16 05:07:34;;;;;;;36.73;11.60;;;;;5.90;97861.00;;;;8387028;28;20255;-71
2021/12/16 05:11:39;;;;;;;34.83;10.80;;;;;5.90;97868.00;;;;8382881;28;20651;-73
2021/12/16 05:15:43;;;;;;;39.10;10.10;;;;;5.90;97877.00;;;;8375444;28;20311;-72
2021/12/16 05:19:50;;;;;;;33.07;10.40;;;;;5.90;97879.00;;;;8391515;28;20231;-77
2021/12/16 05:28:17;;;;;;;30.83;10.63;;;;;5.80;97890.00;;;;8374664;28;20254;-76
2021/12/16 05:32:20;;;;;;;26.67;9.50;;;;;5.80;97886.00;;;;8363200;28;21028;-75
2021/12/16 05:36:26;;;;;;;36.40;10.33;;;;;5.80;97891.00;;;;8342510;28;21147;-72
2021/12/16 05:40:31;;;;;;;32.37;10.07;;;;;5.80;97893.00;;;;8356331;28;20319;-74
2021/12/16 05:44:36;;;;;;;33.63;10.40;;;;;5.80;97890.00;;;;8360975;28;20246;-73
2021/12/16 05:48:42;;;;;;;36.30;10.83;;;;;5.80;97885.00;;;;8357059;28;20227;-74
2021/12/16 05:52:46;;;;;;;40.00;10.90;;;;;5.90;97890.00;;;;8357887;28;20237;-74
2021/12/16 05:56:49;;;;;;;28.13;9.70;;;;;5.80;97900.00;;;;8360185;28;20329;-75
2021/12/16 06:00:57;;;;;;;34.53;9.73;;;;;5.80;97907.00;;;;8354928;28;20707;-74
2021/12/16 06:15:15;;;;;;;30.57;9.67;;;;;5.90;97922.00;;;;8391957;28;20246;-73
2021/12/16 06:29:09;;;;;;;30.00;9.93;;;;;5.90;97920.00;;;;8389480;28;20357;-72
2021/12/16 06:33:30;;;;;;;24.73;8.13;;;;;5.90;97921.00;;;;8383477;28;20284;-73
2021/12/16 06:38:07;;;;;;;25.67;8.83;;;;;5.90;97928.00;;;;8388903;28;20656;-73
2021/12/16 06:42:48;;;;;;;24.50;8.23;;;;;5.90;97932.00;;;;8390608;28;20223;-69
2021/12/16 06:47:28;;;;;;;26.43;8.43;;;;;5.90;97921.00;;;;8390005;28;20231;-71
2021/12/16 06:52:02;;;;;;;27.33;8.57;;;;;5.90;97927.00;;;;8391493;28;20306;-71
2021/12/16 06:56:43;;;;;;;27.80;9.00;;;;;6.00;97942.00;;;;8390893;28;20537;-74
2021/12/16 07:01:13;;;;;;;26.93;7.97;;;;;6.00;97946.00;;;;8391236;28;20656;-74
2021/12/16 07:05:18;;;;;;;19.60;7.60;;;;;6.00;97946.00;;;;8356087;28;20223;-73
2021/12/16 07:09:22;;;;;;;19.80;7.63;;;;;6.00;97950.00;;;;8358156;28;20338;-73
2021/12/16 07:13:37;;;;;;;27.40;7.30;;;;;6.00;97960.00;;;;8357918;28;20938;-70
2021/12/16 07:17:48;;;;;;;19.37;7.07;;;;;6.00;97960.00;;;;8360390;28;20228;-74
2021/12/16 07:21:51;;;;;;;22.00;7.00;;;;;6.00;97958.00;;;;8356775;28;21049;-73
2021/12/16 07:25:56;;;;;;;19.53;8.13;;;;;6.10;97963.00;;;;8350316;28;20769;-74
2021/12/16 07:29:59;;;;;;;22.77;8.43;;;;;6.20;97974.00;;;;8351736;28;21029;-74
2021/12/16 07:34:06;;;;;;;25.47;10.20;;;;;6.20;97965.00;;;;8353432;28;20895;-73
2021/12/16 07:38:10;;;;;;;21.77;9.13;;;;;6.30;97965.00;;;;8355569;28;20247;-74
2021/12/16 07:42:22;;;;;;;22.63;7.97;;;;;6.30;97967.00;;;;8362023;28;20676;-74
2021/12/16 07:46:26;;;;;;;22.20;6.87;;;;;6.20;97970.00;;;;8367166;28;20266;-74
2021/12/16 07:50:33;;;;;;;17.40;7.17;;;;;6.20;97973.00;;;;8363747;28;20322;-74
2021/12/16 07:54:36;;;;;;;17.53;6.93;;;;;6.20;97980.00;;;;8355026;28;20326;-73
2021/12/16 07:58:40;;;;;;;20.73;6.73;;;;;6.20;97972.00;;;;8351499;28;20231;-75
2021/12/16 08:02:44;;;;;;;15.87;6.67;;;;;6.20;97977.00;;;;8366274;28;20230;-74
2021/12/16 08:06:51;;;;;;;15.90;6.37;;;;;6.20;97981.00;;;;8365250;28;20259;-74
2021/12/16 08:10:56;;;;;;;23.57;7.33;;;;;6.20;97986.00;;;;8367241;28;20614;-73
2021/12/16 08:15:01;;;;;;;80.27;9.47;;;;;6.30;97991.00;;;;8372734;28;20251;-74
2021/12/16 08:19:05;;;;;;;19.23;7.40;;;;;6.40;97995.00;;;;8375570;28;20326;-73
2021/12/16 08:23:10;;;;;;;19.77;6.40;;;;;6.40;98009.00;;;;8364098;28;20249;-74
2021/12/16 08:27:15;;;;;;;18.27;6.57;;;;;6.40;98012.00;;;;8364406;28;20250;-73
2021/12/16 08:31:19;;;;;;;22.53;7.00;;;;;6.40;98016.00;;;;8362449;28;20991;-73
2021/12/16 08:35:23;;;;;;;13.50;5.93;;;;;6.40;98012.00;;;;8362943;28;20299;-75
2021/12/16 08:39:29;;;;;;;17.63;6.33;;;;;6.40;98018.00;;;;8353783;28;20227;-74
2021/12/16 08:43:32;;;;;;;17.67;6.80;;;;;6.40;98018.00;;;;8360381;28;20271;-75
2021/12/16 08:47:36;;;;;;;16.83;6.87;;;;;6.40;98017.00;;;;8363635;28;20269;-75
2021/12/16 08:51:43;;;;;;;23.73;6.67;;;;;6.40;98018.00;;;;8362290;28;20241;-74
2021/12/16 08:55:50;;;;;;;21.97;6.83;;;;;6.50;98017.00;;;;8364301;28;20238;-74
2021/12/16 08:59:53;;;;;;;21.23;6.73;;;;;6.50;98026.00;;;;8362455;28;21178;-74
2021/12/16 09:03:57;;;;;;;18.53;6.57;;;;;6.50;98052.00;;;;8359564;28;20310;-74
2021/12/16 09:08:03;;;;;;;17.90;6.70;;;;;6.50;98047.00;;;;8366381;28;20244;-75
2021/12/16 09:12:14;;;;;;;19.13;7.10;;;;;6.60;98052.00;;;;8356862;28;20345;-74
2021/12/16 09:16:21;;;;;;;22.60;7.17;;;;;6.60;98047.00;;;;8362966;28;20212;-75
2021/12/16 09:20:25;;;;;;;22.13;7.50;;;;;6.60;98052.00;;;;8362355;28;20470;-75
2021/12/16 09:24:28;;;;;;;19.97;6.73;;;;;6.60;98059.00;;;;8347824;28;20228;-76
2021/12/16 09:28:34;;;;;;;27.97;7.97;;;;;6.70;98072.00;;;;8366152;28;20338;-74
2021/12/16 09:32:38;;;;;;;22.70;8.10;;;;;6.70;98057.00;;;;8361897;28;20999;-75
2021/12/16 09:36:45;;;;;;;22.87;8.73;;;;;6.70;98062.00;;;;8363762;28;20255;-76
2021/12/16 09:40:52;;;;;;;20.50;7.23;;;;;6.80;98058.00;;;;8361150;28;20262;-75
2021/12/16 09:44:58;;;;;;;20.63;7.50;;;;;6.80;98068.00;;;;8359243;28;20275;-75
2021/12/16 09:49:01;;;;;;;24.43;8.27;;;;;6.90;98078.00;;;;8360983;28;20231;-76
2021/12/16 09:53:05;;;;;;;17.80;7.47;;;;;6.90;98066.00;;;;8362101;28;20314;-76
2021/12/16 09:57:14;;;;;;;20.87;8.20;;;;;7.00;98063.00;;;;8369548;28;20232;-75
2021/12/16 10:01:23;;;;;;;23.37;8.13;;;;;7.10;98053.00;;;;8353870;28;20262;-75
2021/12/16 10:05:26;;;;;;;20.40;7.80;;;;;7.10;98070.00;;;;8358034;28;20356;-76
2021/12/16 10:09:30;;;;;;;24.97;8.63;;;;;7.10;98050.00;;;;8357184;28;20746;-75
2021/12/16 10:13:42;;;;;;;22.37;8.07;;;;;7.00;98056.00;;;;8359455;28;20346;-75
2021/12/16 10:17:47;;;;;;;18.67;7.20;;;;;7.00;98074.00;;;;8356628;28;20315;-76
2021/12/16 10:21:51;;;;;;;21.70;7.60;;;;;7.00;98053.00;;;;8362302;28;20313;-76
2021/12/16 10:25:56;;;;;;;30.87;8.93;;;;;7.10;98056.00;;;;8357145;28;20882;-75
2021/12/16 10:30:05;;;;;;;23.13;7.57;;;;;7.20;98057.00;;;;8359474;28;20604;-75
2021/12/16 10:34:11;;;;;;;27.20;8.17;;;;;7.20;98049.00;;;;8355650;28;20719;-76
2021/12/16 10:38:17;;;;;;;25.80;7.73;;;;;7.20;98049.00;;;;8358321;28;20322;-76
2021/12/16 10:42:20;;;;;;;29.67;8.47;;;;;7.30;98051.00;;;;8359584;28;20252;-76
2021/12/16 10:46:27;;;;;;;27.30;9.47;;;;;7.30;98046.00;;;;8360475;28;20303;-76
2021/12/16 10:50:50;;;;;;;24.50;7.10;;;;;7.30;98038.00;;;;8351657;28;20228;-75
2021/12/16 10:54:55;;;;;;;28.63;8.37;;;;;7.30;98036.00;;;;8356543;28;21084;-75
2021/12/16 10:59:01;;;;;;;32.90;7.70;;;;;7.40;98036.00;;;;8355327;28;20326;-75
2021/12/16 11:03:05;;;;;;;28.57;9.00;;;;;7.50;98041.00;;;;8355429;28;20270;-75
2021/12/16 11:07:14;;;;;;;32.03;9.23;;;;;7.60;98033.00;;;;8358737;28;20300;-75
2021/12/16 11:11:27;;;;;;;33.93;8.90;;;;;7.70;98044.00;;;;8358057;28;20223;-75
2021/12/16 11:15:33;;;;;;;49.73;10.10;;;;;7.70;98039.00;;;;8353405;28;20256;-75
2021/12/16 11:19:58;;;;;;;40.57;10.83;;;;;7.90;98044.00;;;;8359278;28;20250;-75
2021/12/16 11:24:22;;;;;;;47.40;10.80;;;;;8.10;98042.00;;;;8357372;28;20239;-75
2021/12/16 11:28:31;;;;;;;38.87;11.20;;;;;8.20;98041.00;;;;8368001;28;20231;-74
2021/12/16 11:32:42;;;;;;;41.13;10.67;;;;;8.10;98034.00;;;;8375949;28;20631;-74
2021/12/16 11:36:49;;;;;;;40.53;10.53;;;;;8.00;98030.00;;;;8374883;28;20223;-74
2021/12/16 11:41:29;;;;;;;25.87;8.53;;;;;8.00;98023.00;;;;8375494;28;20609;-74
2021/12/16 11:45:38;;;;;;;32.63;10.10;;;;;8.00;98036.00;;;;8374129;28;20265;-75
2021/12/16 11:49:44;;;;;;;51.20;10.97;;;;;8.00;98030.00;;;;8379268;28;20234;-75
2021/12/16 11:53:51;;;;;;;55.43;11.57;;;;;8.20;98029.00;;;;8373402;28;20729;-75
2021/12/16 11:58:01;;;;;;;43.50;11.00;;;;;8.30;98027.00;;;;8375739;28;20596;-75
2021/12/16 12:02:05;;;;;;;44.80;10.67;;;;;8.30;98011.00;;;;8373488;28;20230;-74
2021/12/16 12:06:20;;;;;;;42.53;11.63;;;;;8.40;98017.00;;;;8375755;28;20227;-75
2021/12/16 12:10:41;;;;;;;40.67;10.87;;;;;8.40;98013.00;;;;8375200;28;20227;-75
2021/12/16 12:14:46;;;;;;;41.23;11.07;;;;;8.60;98025.00;;;;8373274;28;20239;-74
2021/12/16 12:18:57;;;;;;;40.07;10.67;;;;;8.70;98021.00;;;;8360348;28;20297;-75
2021/12/16 12:28:33;;;;;;;35.03;9.80;;;;;8.40;98024.00;;;;8397989;28;20299;-74
2021/12/16 12:33:11;;;;;;;45.80;10.67;;;;;8.40;98008.00;;;;8398064;28;20541;-74
2021/12/16 12:37:46;;;;;;;41.10;10.93;;;;;8.50;97984.00;;;;8398165;28;20615;-74
2021/12/16 12:42:20;;;;;;;32.80;10.48;;;;;8.60;97993.00;;;;8397938;28;20253;-74
2021/12/16 12:47:00;;;;;;;31.53;9.07;;;;;8.60;97994.00;;;;8398413;28;20228;-74
2021/12/16 12:51:37;;;;;;;36.53;10.67;;;;;8.60;98001.00;;;;8398014;28;20223;-74
2021/12/16 12:56:12;;;;;;;28.97;9.33;;;;;8.60;98024.00;;;;8397324;28;20224;-74
2021/12/16 13:00:48;;;;;;;33.73;9.37;;;;;8.60;98032.00;;;;8398050;28;20281;-74
2021/12/16 13:10:32;;;;;;;36.97;10.77;;;;;8.40;98031.00;;;;8397973;28;20226;-70
2021/12/16 13:15:10;;;;;;;35.90;10.20;;;;;8.30;98029.00;;;;8396637;28;20220;-72
2021/12/16 13:24:31;;;;;;;50.17;11.83;;;;;8.10;98046.00;;;;8397600;28;20529;-73
2021/12/16 13:29:04;;;;;;;42.67;11.57;;;;;8.00;98049.00;;;;8397425;28;20233;-72
2021/12/16 13:33:22;;;;;;;40.47;10.93;;;;;8.00;98062.00;;;;8396569;28;20278;-78
2021/12/16 13:37:32;;;;;;;38.80;10.50;;;;;7.90;98065.00;;;;8395761;28;20215;-74
2021/12/16 13:41:36;;;;;;;44.57;12.00;;;;;8.00;98071.00;;;;8396677;28;20546;-74
2021/12/16 13:45:50;;;;;;;36.17;11.20;;;;;8.00;98071.00;;;;8395141;28;20223;-73
2021/12/16 14:10:05;;;;;;;45.27;11.70;;;;;7.80;98065.00;;;;8395150;28;20219;-74
2021/12/16 14:14:54;;;;;;;47.53;12.43;;;;;7.70;98057.00;;;;8395371;28;20228;-73
2021/12/16 14:23:50;;;;;;;52.70;12.57;;;;;7.80;98032.00;;;;8394695;28;20216;-74
2021/12/16 14:34:00;;;;;;;49.27;12.77;;;;;7.70;98056.00;;;;8394260;28;20227;-74
2021/12/16 14:43:18;;;;;;;59.20;12.37;;;;;7.70;98068.00;;;;8394462;28;20225;-74
2021/12/16 14:48:05;;;;;;;55.83;12.60;;;;;7.70;98085.00;;;;8394630;28;20230;-73
2021/12/16 14:52:24;;;;;;;65.40;13.10;;;;;7.80;98087.00;;;;8393841;28;20212;-74
2021/12/16 14:56:58;;;;;;;50.17;13.20;;;;;7.80;98095.00;;;;8394387;28;20216;-74
2021/12/16 15:01:32;;;;;;;53.93;12.57;;;;;7.80;98098.00;;;;8393952;28;20265;-73
2021/12/16 15:05:42;;;;;;;56.27;14.03;;;;;7.70;98099.00;;;;8394205;28;20224;-73
2021/12/16 15:10:15;;;;;;;68.43;16.07;;;;;7.70;98100.00;;;;8394135;28;20216;-73
2021/12/16 15:14:31;;;;;;;62.77;14.23;;;;;7.70;98102.00;;;;8393958;28;20664;-74
2021/12/16 15:36:48;;;;;;;57.23;17.80;;;;;7.60;98109.00;;;;8394202;28;20216;-73
2021/12/16 15:45:54;;;;;;;66.70;19.07;;;;;7.60;98111.00;;;;8393595;28;20617;-73
2021/12/16 15:49:58;;;;;;;82.80;22.00;;;;;7.50;98108.00;;;;8393338;28;20220;-73
2021/12/16 15:54:34;;;;;;;66.40;15.80;;;;;7.40;98114.00;;;;8394065;28;20652;-73
2021/12/16 15:58:42;;;;;;;72.07;16.33;;;;;7.40;98112.00;;;;8393327;28;20227;-73
2021/12/16 16:02:46;;;;;;;72.60;18.93;;;;;7.40;98113.00;;;;8399592;28;20235;-73
2021/12/16 16:07:20;;;;;;;76.07;16.03;;;;;7.40;98107.00;;;;8393345;28;20234;-73
2021/12/16 16:11:57;;;;;;;68.43;15.47;;;;;7.30;98109.00;;;;8398015;28;20231;-73
2021/12/16 16:16:04;;;;;;;63.00;15.33;;;;;7.40;98114.00;;;;8398253;28;20224;-73
2021/12/16 16:20:38;;;;;;;76.53;15.77;;;;;7.40;98114.00;;;;8399507;28;20243;-74
2021/12/16 16:25:15;;;;;;;65.63;15.23;;;;;7.50;98115.00;;;;8398797;28;20223;-74
2021/12/16 16:29:20;;;;;;;60.53;15.43;;;;;7.50;98105.00;;;;8398703;28;20219;-74
2021/12/16 16:33:56;;;;;;;63.33;16.37;;;;;7.50;98107.00;;;;8399267;28;20220;-74
2021/12/16 16:38:35;;;;;;;60.87;18.27;;;;;7.50;98101.00;;;;8396223;28;20212;-77
2021/12/16 16:42:41;;;;;;;69.20;15.43;;;;;7.40;98107.00;;;;8398987;28;20638;-78
2021/12/16 16:46:53;;;;;;;69.73;15.87;;;;;7.40;98104.00;;;;8398250;28;20710;-77
2021/12/16 16:51:26;;;;;;;65.83;15.50;;;;;7.40;98110.00;;;;8398195;28;20660;-76
2021/12/16 16:55:57;;;;;;;80.83;16.23;;;;;7.40;98126.00;;;;8397019;28;20227;-78
2021/12/16 17:00:34;;;;;;;84.97;17.53;;;;;7.40;98137.00;;;;8405782;28;20223;-88
2021/12/16 17:04:37;;;;;;;64.27;14.73;;;;;7.40;98133.00;;;;8406569;28;20280;-86
2021/12/16 17:09:16;;;;;;;87.07;16.77;;;;;7.40;98147.00;;;;8399703;28;20224;-87
2021/12/16 17:13:58;;;;;;;98.23;18.03;;;;;7.40;98135.00;;;;8399530;28;20228;-87
2021/12/16 17:18:28;;;;;;;91.13;16.63;;;;;7.40;98138.00;;;;8398499;28;20568;-87
2021/12/16 17:23:13;;;;;;;95.30;17.60;;;;;7.50;98131.00;;;;8398975;28;20216;-86
2021/12/16 17:27:39;;;;;;;88.53;17.57;;;;;7.40;98132.00;;;;8398059;28;20313;-86
2021/12/16 17:32:19;;;;;;;99.90;18.00;;;;;7.40;98129.00;;;;8397184;28;20618;-84
2021/12/16 17:36:23;;;;;;;101.47;18.10;;;;;7.40;98143.00;;;;8395263;28;20220;-84
2021/12/16 17:40:32;;;;;;;112.67;18.53;;;;;7.40;98149.00;;;;8395523;28;20215;-82
2021/12/16 17:45:08;;;;;;;93.57;19.13;;;;;7.40;98143.00;;;;8394216;28;20285;-75
2021/12/16 17:49:42;;;;;;;92.00;18.83;;;;;7.40;98151.00;;;;8396141;28;20538;-76
2021/12/16 17:54:16;;;;;;;109.23;19.20;;;;;7.40;98157.00;;;;8395907;28;20232;-76
2021/12/16 17:58:53;;;;;;;104.57;19.63;;;;;7.40;98148.00;;;;8395873;28;20216;-76
2021/12/16 18:03:32;;;;;;;119.37;19.60;;;;;7.40;98141.00;;;;8395678;28;20228;-76
2021/12/16 18:12:49;;;;;;;115.33;20.27;;;;;7.30;98127.00;;;;8395526;28;20234;-78
2021/12/16 18:17:27;;;;;;;113.60;19.90;;;;;7.20;98114.00;;;;8394842;28;20216;-76
2021/12/16 18:22:00;;;;;;;117.60;19.73;;;;;7.10;98117.00;;;;8396195;28;20651;-76
2021/12/16 18:26:08;;;;;;;128.43;20.70;;;;;7.10;98108.00;;;;8394447;28;20232;-76
2021/12/16 18:30:45;;;;;;;129.03;20.00;;;;;7.00;98101.00;;;;8395200;28;20242;-86
2021/12/16 18:35:17;;;;;;;137.00;21.03;;;;;7.00;98102.00;;;;8399312;28;20561;-76
2021/12/16 18:39:53;;;;;;;122.97;20.37;;;;;7.00;98114.00;;;;8394609;28;20225;-82
2021/12/16 18:44:33;;;;;;;122.23;20.53;;;;;7.00;98105.00;;;;8394333;28;20219;-83
2021/12/16 18:49:14;;;;;;;146.47;20.33;;;;;7.00;98100.00;;;;8395232;28;21882;-82
2021/12/16 18:58:22;;;;;;;130.07;20.47;;;;;6.90;98122.00;;;;8394414;28;20278;-79
2021/12/16 19:02:55;;;;;;;115.20;20.03;;;;;7.00;98129.00;;;;8387559;28;20624;-80
2021/12/16 19:07:35;;;;;;;118.37;19.50;;;;;7.00;98136.00;;;;8392323;28;20643;-78
2021/12/16 19:16:37;;;;;;;113.30;20.17;;;;;7.10;98158.00;;;;8393810;28;20216;-76
2021/12/16 19:21:12;;;;;;;121.70;20.73;;;;;7.20;98177.00;;;;8394112;28;20557;-76
2021/12/16 19:25:49;;;;;;;116.00;19.27;;;;;7.20;98180.00;;;;8393105;28;20560;-76
2021/12/16 19:30:28;;;;;;;117.43;19.27;;;;;7.20;98181.00;;;;8393929;28;20223;-77
2021/12/16 19:35:04;;;;;;;111.30;20.63;;;;;7.30;98179.00;;;;8391892;28;20250;-79
2021/12/16 19:39:38;;;;;;;100.27;19.30;;;;;7.30;98185.00;;;;8393621;28;20290;-81
2021/12/16 19:44:17;;;;;;;108.03;19.50;;;;;7.40;98185.00;;;;8393116;28;20216;-83
2021/12/16 19:48:52;;;;;;;127.23;20.40;;;;;7.50;98184.00;;;;8392464;28;20220;-83
2021/12/16 19:53:26;;;;;;;104.70;18.33;;;;;7.50;98197.00;;;;8393700;28;20735;-83
2021/12/16 19:58:06;;;;;;;131.50;20.40;;;;;7.50;98200.00;;;;8392479;28;20223;-84
2021/12/16 20:02:41;;;;;;;115.20;20.20;;;;;7.40;98206.00;;;;8391986;28;20219;-84
2021/12/16 20:06:46;;;;;;;109.60;20.17;;;;;7.40;98217.00;;;;8393356;28;20609;-84
2021/12/16 20:10:53;;;;;;;126.33;20.90;;;;;7.40;98213.00;;;;8392801;28;20223;-81
2021/12/16 20:15:27;;;;;;;135.37;20.57;;;;;7.40;98214.00;;;;8392100;28;20230;-83
2021/12/16 20:19:33;;;;;;;124.40;22.00;;;;;7.40;98212.00;;;;8392450;28;20216;-82
2021/12/16 20:23:37;;;;;;;135.37;21.63;;;;;7.30;98225.00;;;;8393480;28;20641;-84
2021/12/16 20:27:44;;;;;;;114.10;21.50;;;;;7.30;98233.00;;;;8392560;28;20224;-81
2021/12/16 20:32:14;;;;;;;111.00;19.97;;;;;7.30;98220.00;;;;8393082;28;20309;-80
2021/12/16 20:36:22;;;;;;;108.00;19.97;;;;;7.40;98224.00;;;;8392299;28;20228;-79
2021/12/16 20:40:57;;;;;;;123.40;20.27;;;;;7.50;98224.00;;;;8392185;28;20596;-79
2021/12/16 20:45:45;;;;;;;119.03;20.35;;;;;7.50;98234.00;;;;8392967;28;20215;-81
2021/12/16 20:50:10;;;;;;;127.13;20.97;;;;;7.50;98215.00;;;;8397562;28;20231;-80
2021/12/16 20:54:17;;;;;;;111.80;20.47;;;;;7.50;98214.00;;;;8398046;28;20624;-79
2021/12/16 20:58:51;;;;;;;127.23;21.30;;;;;7.50;98202.00;;;;8398091;28;20216;-84
2021/12/16 21:03:28;;;;;;;123.03;20.90;;;;;7.50;98190.00;;;;8398011;28;20220;-88
2021/12/16 21:08:06;;;;;;;137.97;20.83;;;;;7.50;98196.00;;;;8398016;28;20564;-86
2021/12/16 21:12:15;;;;;;;120.03;20.43;;;;;7.50;98189.00;;;;8397651;28;20224;-87
2021/12/16 21:16:45;;;;;;;134.03;20.70;;;;;7.40;98185.00;;;;8398067;28;20224;-86
2021/12/16 21:20:49;;;;;;;128.33;21.40;;;;;7.40;98184.00;;;;8398275;28;20267;-89
2021/12/16 21:24:54;;;;;;;133.57;20.90;;;;;7.40;98189.00;;;;8398785;28;20235;-85
2021/12/16 21:29:30;;;;;;;141.13;23.00;;;;;7.30;98188.00;;;;8397280;28;20220;-85
2021/12/16 21:33:40;;;;;;;134.97;22.23;;;;;7.40;98193.00;;;;8397443;28;20239;-86
2021/12/16 21:38:07;;;;;;;129.67;24.20;;;;;7.40;98191.00;;;;8396926;28;20238;-81
2021/12/16 21:42:44;;;;;;;114.03;21.33;;;;;7.40;98202.00;;;;8397351;28;20661;-86
2021/12/16 21:46:49;;;;;;;114.43;21.17;;;;;7.40;98208.00;;;;8398213;28;20262;-86
2021/12/16 21:50:55;;;;;;;118.03;21.30;;;;;7.50;98204.00;;;;8397590;28;20208;-84
2021/12/16 21:54:58;;;;;;;117.00;20.20;;;;;7.50;98209.00;;;;8396914;28;20212;-86
2021/12/16 21:59:03;;;;;;;139.03;22.03;;;;;7.50;98213.00;;;;8397006;28;20243;-87
2021/12/16 22:03:39;;;;;;;111.30;20.47;;;;;7.40;98217.00;;;;8398299;28;20235;-89
2021/12/16 22:07:43;;;;;;;128.90;21.77;;;;;7.50;98219.00;;;;8397544;28;20212;-88
2021/12/16 22:16:46;;;;;;;129.33;23.67;;;;;7.50;98226.00;;;;8402935;28;20634;-90
2021/12/16 22:20:55;;;;;;;173.10;41.53;;;;;7.50;98222.00;;;;8397881;28;20227;-87
2021/12/16 22:24:58;;;;;;;152.07;33.23;;;;;7.50;98239.00;;;;8398038;28;20216;-89
2021/12/16 22:29:02;;;;;;;125.83;25.50;;;;;7.50;98227.00;;;;8418901;28;20231;-90
2021/12/16 22:33:36;;;;;;;132.43;22.90;;;;;7.50;98232.00;;;;8397227;28;20561;-87
2021/12/16 22:37:42;;;;;;;114.97;20.57;;;;;7.60;98237.00;;;;8397779;28;20645;-89
2021/12/16 22:41:45;;;;;;;111.23;20.97;;;;;7.60;98231.00;;;;8399750;28;20239;-89
2021/12/16 22:46:19;;;;;;;120.80;20.83;;;;;7.60;98241.00;;;;8400936;28;20671;-87
2021/12/16 22:50:23;;;;;;;114.93;19.53;;;;;7.70;98228.00;;;;8401226;28;20235;-90
2021/12/16 22:54:28;;;;;;;103.87;19.27;;;;;7.70;98229.00;;;;8400823;28;20223;-88
2021/12/16 22:59:02;;;;;;;105.20;19.23;;;;;7.60;98223.00;;;;8400182;28;20220;-86
2021/12/16 23:03:05;;;;;;;99.35;18.08;;;;;7.60;98219.00;;;;8399498;28;20324;-88
2021/12/16 23:07:10;;;;;;;97.53;17.67;;;;;7.50;98209.00;;;;8398902;28;20216;-88
2021/12/16 23:11:16;;;;;;;102.50;18.73;;;;;7.50;98212.00;;;;8395581;28;20231;-87
2021/12/16 23:24:16;;;;;;;106.10;18.80;;;;;7.50;98222.00;;;;8394368;28;20223;-87
2021/12/16 23:28:21;;;;;;;100.23;18.43;;;;;7.40;98229.00;;;;8394261;28;20223;-86
2021/12/16 23:32:55;;;;;;;83.13;17.33;;;;;7.40;98224.00;;;;8394625;28;20212;-88
2021/12/16 23:36:59;;;;;;;90.13;17.83;;;;;7.40;98238.00;;;;8397624;28;20230;-87
2021/12/16 23:41:08;;;;;;;104.50;17.93;;;;;7.40;98245.00;;;;8394879;28;20215;-86
2021/12/16 23:45:58;;;;;;;96.47;17.90;;;;;7.40;98234.00;;;;8396243;28;20243;-87
2021/12/16 23:54:22;;;;;;;79.03;16.50;;;;;7.40;98226.00;;;;8395964;28;20227;-86
2021/12/16 23:58:31;;;;;;;84.90;17.13;;;;;7.40;98227.00;;;;8395883;28;20231;-88
